sensor_id;sensor_type;location;lat;lon;timestamp;temperature;humidity
15906;DHT22;8051;50.820;4.884;2023-06-24T00:01:37;18.80;99.90
15906;DHT22;8051;50.820;4.884;2023-06-24T00:04:05;18.70;99.90
15906;DHT22;8051;50.820;4.884;2023-06-24T00:06:32;18.70;99.90
15906;DHT22;8051;50.820;4.884;2023-06-24T00:09:00;18.70;99.90
15906;DHT22;8051;50.820;4.884;2023-06-24T00:11:29;18.70;99.90
15906;DHT22;8051;50.820;4.884;2023-06-24T00:13:56;18.70;99.90
15906;DHT22;8051;50.820;4.884;2023-06-24T00:16:25;18.60;99.90
15906;DHT22;8051;50.820;4.884;2023-06-24T00:18:54;18.60;99.90
15906;DHT22;8051;50.820;4.884;2023-06-24T00:21:27;18.60;99.90
15906;DHT22;8051;50.820;4.884;2023-06-24T00:23:56;18.50;99.90
15906;DHT22;8051;50.820;4.884;2023-06-24T00:26:24;18.40;99.90
15906;DHT22;8051;50.820;4.884;2023-06-24T00:28:52;18.40;99.90
15906;DHT22;8051;50.820;4.884;2023-06-24T00:31:19;18.30;99.90
15906;DHT22;8051;50.820;4.884;2023-06-24T00:33:49;18.30;99.90
15906;DHT22;8051;50.820;4.884;2023-06-24T00:36:18;18.20;99.90
15906;DHT22;8051;50.820;4.884;2023-06-24T00:38:45;18.10;99.90
15906;DHT22;8051;50.820;4.884;2023-06-24T00:41:16;18.00;99.90
15906;DHT22;8051;50.820;4.884;2023-06-24T00:43:44;18.00;99.90
15906;DHT22;8051;50.820;4.884;2023-06-24T00:46:12;17.90;99.90
15906;DHT22;8051;50.820;4.884;2023-06-24T00:48:41;17.90;99.90
15906;DHT22;8051;50.820;4.884;2023-06-24T00:51:10;17.80;99.90
15906;DHT22;8051;50.820;4.884;2023-06-24T00:53:37;17.80;99.90
15906;DHT22;8051;50.820;4.884;2023-06-24T00:56:05;17.80;99.90
15906;DHT22;8051;50.820;4.884;2023-06-24T00:58:34;17.70;99.90
15906;DHT22;8051;50.820;4.884;2023-06-24T01:01:02;17.70;99.90
15906;DHT22;8051;50.820;4.884;2023-06-24T01:03:31;17.60;99.90
15906;DHT22;8051;50.820;4.884;2023-06-24T01:05:59;17.60;99.90
15906;DHT22;8051;50.820;4.884;2023-06-24T01:08:28;17.50;99.90
15906;DHT22;8051;50.820;4.884;2023-06-24T01:10:55;17.50;99.90
15906;DHT22;8051;50.820;4.884;2023-06-24T01:13:23;17.50;99.90
15906;DHT22;8051;50.820;4.884;2023-06-24T01:15:50;17.40;99.90
15906;DHT22;8051;50.820;4.884;2023-06-24T01:18:23;17.40;99.90
15906;DHT22;8051;50.820;4.884;2023-06-24T01:20:56;17.40;99.90
15906;DHT22;8051;50.820;4.884;2023-06-24T01:23:52;17.30;99.90
15906;DHT22;8051;50.820;4.884;2023-06-24T01:26:48;17.20;99.90
15906;DHT22;8051;50.820;4.884;2023-06-24T01:29:59;17.10;99.90
15906;DHT22;8051;50.820;4.884;2023-06-24T01:32:32;17.00;99.90
15906;DHT22;8051;50.820;4.884;2023-06-24T01:35:07;17.00;99.90
15906;DHT22;8051;50.820;4.884;2023-06-24T01:37:41;17.00;99.90
15906;DHT22;8051;50.820;4.884;2023-06-24T01:40:11;17.00;99.90
15906;DHT22;8051;50.820;4.884;2023-06-24T01:42:41;17.00;99.90
15906;DHT22;8051;50.820;4.884;2023-06-24T01:45:12;16.90;99.90
15906;DHT22;8051;50.820;4.884;2023-06-24T01:47:44;16.90;99.90
15906;DHT22;8051;50.820;4.884;2023-06-24T01:50:14;16.90;99.90
15906;DHT22;8051;50.820;4.884;2023-06-24T01:52:45;16.90;99.90
15906;DHT22;8051;50.820;4.884;2023-06-24T01:55:18;16.80;99.90
15906;DHT22;8051;50.820;4.884;2023-06-24T01:57:49;16.80;99.90
15906;DHT22;8051;50.820;4.884;2023-06-24T02:00:18;16.70;99.90
15906;DHT22;8051;50.820;4.884;2023-06-24T02:02:47;16.70;99.90
15906;DHT22;8051;50.820;4.884;2023-06-24T02:05:17;16.60;99.90
15906;DHT22;8051;50.820;4.884;2023-06-24T02:07:45;16.50;99.90
15906;DHT22;8051;50.820;4.884;2023-06-24T02:10:14;16.50;99.90
15906;DHT22;8051;50.820;4.884;2023-06-24T02:12:44;16.50;99.90
15906;DHT22;8051;50.820;4.884;2023-06-24T02:15:12;16.40;99.90
15906;DHT22;8051;50.820;4.884;2023-06-24T02:17:40;16.30;99.90
15906;DHT22;8051;50.820;4.884;2023-06-24T02:20:10;16.30;99.90
15906;DHT22;8051;50.820;4.884;2023-06-24T02:22:39;16.30;99.90
15906;DHT22;8051;50.820;4.884;2023-06-24T02:25:08;16.20;99.90
15906;DHT22;8051;50.820;4.884;2023-06-24T02:27:36;16.20;99.90
15906;DHT22;8051;50.820;4.884;2023-06-24T02:30:05;16.20;99.90
15906;DHT22;8051;50.820;4.884;2023-06-24T02:32:35;16.10;99.90
15906;DHT22;8051;50.820;4.884;2023-06-24T02:35:05;16.00;99.90
15906;DHT22;8051;50.820;4.884;2023-06-24T02:37:35;16.00;99.90
15906;DHT22;8051;50.820;4.884;2023-06-24T02:40:03;15.90;99.90
15906;DHT22;8051;50.820;4.884;2023-06-24T02:42:31;15.80;99.90
15906;DHT22;8051;50.820;4.884;2023-06-24T02:44:59;15.80;99.90
15906;DHT22;8051;50.820;4.884;2023-06-24T02:47:27;15.70;99.90
15906;DHT22;8051;50.820;4.884;2023-06-24T02:49:56;15.70;99.90
15906;DHT22;8051;50.820;4.884;2023-06-24T02:52:24;15.60;99.90
15906;DHT22;8051;50.820;4.884;2023-06-24T02:54:56;15.60;99.90
15906;DHT22;8051;50.820;4.884;2023-06-24T02:57:25;15.50;99.90
15906;DHT22;8051;50.820;4.884;2023-06-24T02:59:52;15.50;99.90
15906;DHT22;8051;50.820;4.884;2023-06-24T03:02:20;15.50;99.90
15906;DHT22;8051;50.820;4.884;2023-06-24T03:04:49;15.40;99.90
15906;DHT22;8051;50.820;4.884;2023-06-24T03:07:18;15.40;99.90
15906;DHT22;8051;50.820;4.884;2023-06-24T03:09:46;15.40;99.90
15906;DHT22;8051;50.820;4.884;2023-06-24T03:12:15;15.30;99.90
15906;DHT22;8051;50.820;4.884;2023-06-24T03:14:43;15.30;99.90
15906;DHT22;8051;50.820;4.884;2023-06-24T03:17:10;15.30;99.90
15906;DHT22;8051;50.820;4.884;2023-06-24T03:19:38;15.20;99.90
15906;DHT22;8051;50.820;4.884;2023-06-24T03:22:06;15.20;99.90
15906;DHT22;8051;50.820;4.884;2023-06-24T03:24:33;15.20;99.90
15906;DHT22;8051;50.820;4.884;2023-06-24T03:27:00;15.20;99.90
15906;DHT22;8051;50.820;4.884;2023-06-24T03:29:29;15.20;99.90
15906;DHT22;8051;50.820;4.884;2023-06-24T03:31:57;15.20;99.90
15906;DHT22;8051;50.820;4.884;2023-06-24T03:34:24;15.20;99.90
15906;DHT22;8051;50.820;4.884;2023-06-24T03:36:52;15.20;99.90
15906;DHT22;8051;50.820;4.884;2023-06-24T03:39:21;15.20;99.90
15906;DHT22;8051;50.820;4.884;2023-06-24T03:41:49;15.20;99.90
15906;DHT22;8051;50.820;4.884;2023-06-24T03:44:16;15.20;99.90
15906;DHT22;8051;50.820;4.884;2023-06-24T03:46:45;15.20;99.90
15906;DHT22;8051;50.820;4.884;2023-06-24T03:49:12;15.20;99.90
15906;DHT22;8051;50.820;4.884;2023-06-24T03:51:40;15.20;99.90
15906;DHT22;8051;50.820;4.884;2023-06-24T03:54:07;15.20;99.90
15906;DHT22;8051;50.820;4.884;2023-06-24T03:56:35;15.20;99.90
15906;DHT22;8051;50.820;4.884;2023-06-24T03:59:02;15.20;99.90
15906;DHT22;8051;50.820;4.884;2023-06-24T04:01:30;15.30;99.90
15906;DHT22;8051;50.820;4.884;2023-06-24T04:03:59;15.20;99.90
15906;DHT22;8051;50.820;4.884;2023-06-24T04:06:26;15.40;99.90
15906;DHT22;8051;50.820;4.884;2023-06-24T04:08:54;15.60;99.90
15906;DHT22;8051;50.820;4.884;2023-06-24T04:11:21;16.00;99.90
15906;DHT22;8051;50.820;4.884;2023-06-24T04:13:49;16.40;99.90
15906;DHT22;8051;50.820;4.884;2023-06-24T04:16:16;16.80;99.90
15906;DHT22;8051;50.820;4.884;2023-06-24T04:18:43;17.30;99.90
15906;DHT22;8051;50.820;4.884;2023-06-24T04:21:12;17.70;99.90
15906;DHT22;8051;50.820;4.884;2023-06-24T04:23:40;18.20;99.90
15906;DHT22;8051;50.820;4.884;2023-06-24T04:26:08;18.60;99.90
15906;DHT22;8051;50.820;4.884;2023-06-24T04:28:35;18.90;99.90
15906;DHT22;8051;50.820;4.884;2023-06-24T04:31:04;19.20;99.90
15906;DHT22;8051;50.820;4.884;2023-06-24T04:33:31;19.50;99.90
15906;DHT22;8051;50.820;4.884;2023-06-24T04:35:59;19.80;99.90
15906;DHT22;8051;50.820;4.884;2023-06-24T04:38:28;20.00;99.90
15906;DHT22;8051;50.820;4.884;2023-06-24T04:40:55;20.30;99.90
15906;DHT22;8051;50.820;4.884;2023-06-24T04:43:25;20.60;99.90
15906;DHT22;8051;50.820;4.884;2023-06-24T04:45:54;20.90;99.90
15906;DHT22;8051;50.820;4.884;2023-06-24T04:48:23;21.00;99.90
15906;DHT22;8051;50.820;4.884;2023-06-24T04:50:51;21.00;99.90
15906;DHT22;8051;50.820;4.884;2023-06-24T04:53:19;21.00;99.90
15906;DHT22;8051;50.820;4.884;2023-06-24T04:55:48;21.10;99.90
15906;DHT22;8051;50.820;4.884;2023-06-24T04:58:15;21.10;99.90
15906;DHT22;8051;50.820;4.884;2023-06-24T05:00:43;21.30;99.90
15906;DHT22;8051;50.820;4.884;2023-06-24T05:03:11;21.50;99.90
15906;DHT22;8051;50.820;4.884;2023-06-24T05:05:38;21.60;99.90
15906;DHT22;8051;50.820;4.884;2023-06-24T05:08:06;21.60;99.90
15906;DHT22;8051;50.820;4.884;2023-06-24T05:10:33;21.60;99.90
15906;DHT22;8051;50.820;4.884;2023-06-24T05:13:02;21.60;99.90
15906;DHT22;8051;50.820;4.884;2023-06-24T05:15:30;21.80;99.90
15906;DHT22;8051;50.820;4.884;2023-06-24T05:17:57;21.70;99.90
15906;DHT22;8051;50.820;4.884;2023-06-24T05:20:25;21.60;99.90
15906;DHT22;8051;50.820;4.884;2023-06-24T05:22:52;21.60;99.90
15906;DHT22;8051;50.820;4.884;2023-06-24T05:25:20;21.50;99.90
15906;DHT22;8051;50.820;4.884;2023-06-24T05:27:48;21.60;99.90
15906;DHT22;8051;50.820;4.884;2023-06-24T05:30:17;21.70;99.90
15906;DHT22;8051;50.820;4.884;2023-06-24T05:32:45;21.80;99.90
15906;DHT22;8051;50.820;4.884;2023-06-24T05:35:12;21.80;99.90
15906;DHT22;8051;50.820;4.884;2023-06-24T05:37:40;21.70;99.90
15906;DHT22;8051;50.820;4.884;2023-06-24T05:40:08;22.00;99.90
15906;DHT22;8051;50.820;4.884;2023-06-24T05:42:35;22.00;99.90
15906;DHT22;8051;50.820;4.884;2023-06-24T05:45:03;22.20;99.90
15906;DHT22;8051;50.820;4.884;2023-06-24T05:47:33;22.50;99.90
15906;DHT22;8051;50.820;4.884;2023-06-24T05:50:01;22.60;99.90
15906;DHT22;8051;50.820;4.884;2023-06-24T05:52:28;22.50;99.90
15906;DHT22;8051;50.820;4.884;2023-06-24T05:54:56;22.50;99.90
15906;DHT22;8051;50.820;4.884;2023-06-24T05:57:23;22.60;99.90
15906;DHT22;8051;50.820;4.884;2023-06-24T05:59:50;22.70;99.90
15906;DHT22;8051;50.820;4.884;2023-06-24T06:02:18;22.60;99.90
15906;DHT22;8051;50.820;4.884;2023-06-24T06:04:47;22.40;99.90
15906;DHT22;8051;50.820;4.884;2023-06-24T06:07:14;22.30;99.90
15906;DHT22;8051;50.820;4.884;2023-06-24T06:09:42;22.20;99.90
15906;DHT22;8051;50.820;4.884;2023-06-24T06:12:10;22.40;99.90
15906;DHT22;8051;50.820;4.884;2023-06-24T06:14:37;22.30;99.90
15906;DHT22;8051;50.820;4.884;2023-06-24T06:17:05;22.40;99.90
15906;DHT22;8051;50.820;4.884;2023-06-24T06:19:33;22.50;99.90
15906;DHT22;8051;50.820;4.884;2023-06-24T06:22:02;22.50;99.90
15906;DHT22;8051;50.820;4.884;2023-06-24T06:24:30;22.60;99.90
15906;DHT22;8051;50.820;4.884;2023-06-24T06:26:58;22.30;99.90
15906;DHT22;8051;50.820;4.884;2023-06-24T06:29:26;22.00;99.90
15906;DHT22;8051;50.820;4.884;2023-06-24T06:31:53;21.60;99.90
15906;DHT22;8051;50.820;4.884;2023-06-24T06:34:22;21.60;99.90
15906;DHT22;8051;50.820;4.884;2023-06-24T06:36:50;21.40;99.90
15906;DHT22;8051;50.820;4.884;2023-06-24T06:39:19;21.30;99.90
15906;DHT22;8051;50.820;4.884;2023-06-24T06:41:46;21.10;99.90
15906;DHT22;8051;50.820;4.884;2023-06-24T06:44:14;20.80;99.90
15906;DHT22;8051;50.820;4.884;2023-06-24T06:46:41;20.80;99.90
15906;DHT22;8051;50.820;4.884;2023-06-24T06:49:09;20.70;99.90
15906;DHT22;8051;50.820;4.884;2023-06-24T06:51:36;20.70;99.90
15906;DHT22;8051;50.820;4.884;2023-06-24T06:54:04;20.60;99.90
15906;DHT22;8051;50.820;4.884;2023-06-24T06:56:33;20.60;99.90
15906;DHT22;8051;50.820;4.884;2023-06-24T06:59:00;20.60;99.90
15906;DHT22;8051;50.820;4.884;2023-06-24T07:01:27;20.80;99.90
15906;DHT22;8051;50.820;4.884;2023-06-24T07:03:55;20.90;99.90
15906;DHT22;8051;50.820;4.884;2023-06-24T07:06:23;21.00;99.90
15906;DHT22;8051;50.820;4.884;2023-06-24T07:08:50;21.00;99.90
15906;DHT22;8051;50.820;4.884;2023-06-24T07:11:17;21.10;99.90
15906;DHT22;8051;50.820;4.884;2023-06-24T07:13:46;21.20;99.90
15906;DHT22;8051;50.820;4.884;2023-06-24T07:16:16;21.30;99.90
15906;DHT22;8051;50.820;4.884;2023-06-24T07:18:44;21.30;99.90
15906;DHT22;8051;50.820;4.884;2023-06-24T07:21:12;21.30;99.90
15906;DHT22;8051;50.820;4.884;2023-06-24T07:23:39;21.30;99.90
15906;DHT22;8051;50.820;4.884;2023-06-24T07:26:07;21.40;99.90
15906;DHT22;8051;50.820;4.884;2023-06-24T07:28:35;21.40;99.90
15906;DHT22;8051;50.820;4.884;2023-06-24T07:31:04;21.40;99.90
15906;DHT22;8051;50.820;4.884;2023-06-24T07:33:31;21.30;99.90
15906;DHT22;8051;50.820;4.884;2023-06-24T07:35:59;21.40;99.90
15906;DHT22;8051;50.820;4.884;2023-06-24T07:38:28;21.50;99.90
15906;DHT22;8051;50.820;4.884;2023-06-24T07:40:56;21.50;99.90
15906;DHT22;8051;50.820;4.884;2023-06-24T07:43:23;21.60;99.90
15906;DHT22;8051;50.820;4.884;2023-06-24T07:45:51;21.60;99.90
15906;DHT22;8051;50.820;4.884;2023-06-24T07:48:20;21.80;99.90
15906;DHT22;8051;50.820;4.884;2023-06-24T07:50:47;22.00;99.90
15906;DHT22;8051;50.820;4.884;2023-06-24T07:53:15;22.00;99.90
15906;DHT22;8051;50.820;4.884;2023-06-24T07:55:42;22.10;99.90
15906;DHT22;8051;50.820;4.884;2023-06-24T07:58:10;22.10;99.90
15906;DHT22;8051;50.820;4.884;2023-06-24T08:00:37;22.10;99.90
15906;DHT22;8051;50.820;4.884;2023-06-24T08:03:05;22.10;99.90
15906;DHT22;8051;50.820;4.884;2023-06-24T08:05:35;22.20;99.90
15906;DHT22;8051;50.820;4.884;2023-06-24T08:08:05;22.20;99.90
15906;DHT22;8051;50.820;4.884;2023-06-24T08:10:33;22.20;99.90
15906;DHT22;8051;50.820;4.884;2023-06-24T08:13:00;22.30;99.90
15906;DHT22;8051;50.820;4.884;2023-06-24T08:15:28;22.30;99.90
15906;DHT22;8051;50.820;4.884;2023-06-24T08:17:55;22.20;99.90
15906;DHT22;8051;50.820;4.884;2023-06-24T08:20:23;22.20;99.90
15906;DHT22;8051;50.820;4.884;2023-06-24T08:22:52;22.30;99.90
15906;DHT22;8051;50.820;4.884;2023-06-24T08:25:19;22.50;99.90
15906;DHT22;8051;50.820;4.884;2023-06-24T08:27:48;22.50;99.90
15906;DHT22;8051;50.820;4.884;2023-06-24T08:30:16;22.60;99.90
15906;DHT22;8051;50.820;4.884;2023-06-24T08:32:43;22.70;99.90
15906;DHT22;8051;50.820;4.884;2023-06-24T08:35:11;22.80;99.90
15906;DHT22;8051;50.820;4.884;2023-06-24T08:37:39;22.60;99.90
15906;DHT22;8051;50.820;4.884;2023-06-24T08:40:09;22.50;99.90
15906;DHT22;8051;50.820;4.884;2023-06-24T08:42:36;22.60;99.90
15906;DHT22;8051;50.820;4.884;2023-06-24T08:45:04;22.60;99.90
15906;DHT22;8051;50.820;4.884;2023-06-24T08:47:33;22.80;99.90
15906;DHT22;8051;50.820;4.884;2023-06-24T08:50:04;23.00;99.90
15906;DHT22;8051;50.820;4.884;2023-06-24T08:52:35;23.20;99.90
15906;DHT22;8051;50.820;4.884;2023-06-24T08:55:05;23.30;99.90
15906;DHT22;8051;50.820;4.884;2023-06-24T08:57:35;23.30;99.90
15906;DHT22;8051;50.820;4.884;2023-06-24T09:00:04;23.40;99.90
15906;DHT22;8051;50.820;4.884;2023-06-24T09:02:36;23.40;99.90
15906;DHT22;8051;50.820;4.884;2023-06-24T09:05:04;23.40;99.90
15906;DHT22;8051;50.820;4.884;2023-06-24T09:07:32;23.20;99.90
15906;DHT22;8051;50.820;4.884;2023-06-24T09:10:00;23.20;99.90
15906;DHT22;8051;50.820;4.884;2023-06-24T09:12:28;23.30;99.90
15906;DHT22;8051;50.820;4.884;2023-06-24T09:14:59;23.30;99.90
15906;DHT22;8051;50.820;4.884;2023-06-24T09:17:27;23.30;99.90
15906;DHT22;8051;50.820;4.884;2023-06-24T09:20:03;23.50;99.90
15906;DHT22;8051;50.820;4.884;2023-06-24T09:22:31;23.60;99.90
15906;DHT22;8051;50.820;4.884;2023-06-24T09:25:01;23.70;99.90
15906;DHT22;8051;50.820;4.884;2023-06-24T09:27:31;23.70;99.90
15906;DHT22;8051;50.820;4.884;2023-06-24T09:30:01;23.70;99.90
15906;DHT22;8051;50.820;4.884;2023-06-24T09:32:43;23.60;99.90
15906;DHT22;8051;50.820;4.884;2023-06-24T09:35:11;23.60;99.90
15906;DHT22;8051;50.820;4.884;2023-06-24T09:37:38;23.50;99.90
15906;DHT22;8051;50.820;4.884;2023-06-24T09:40:08;23.50;99.90
15906;DHT22;8051;50.820;4.884;2023-06-24T09:42:36;23.40;99.90
15906;DHT22;8051;50.820;4.884;2023-06-24T09:45:09;23.50;99.90
15906;DHT22;8051;50.820;4.884;2023-06-24T09:47:36;23.60;99.90
15906;DHT22;8051;50.820;4.884;2023-06-24T09:50:05;23.50;99.90
15906;DHT22;8051;50.820;4.884;2023-06-24T09:52:34;23.70;99.90
15906;DHT22;8051;50.820;4.884;2023-06-24T09:55:02;23.70;99.90
15906;DHT22;8051;50.820;4.884;2023-06-24T09:57:31;23.60;99.90
15906;DHT22;8051;50.820;4.884;2023-06-24T09:59:59;23.80;99.90
15906;DHT22;8051;50.820;4.884;2023-06-24T10:02:30;23.90;99.90
15906;DHT22;8051;50.820;4.884;2023-06-24T10:04:59;23.90;99.90
15906;DHT22;8051;50.820;4.884;2023-06-24T10:07:27;23.90;99.90
15906;DHT22;8051;50.820;4.884;2023-06-24T10:09:55;23.90;99.90
15906;DHT22;8051;50.820;4.884;2023-06-24T10:12:23;24.00;99.90
15906;DHT22;8051;50.820;4.884;2023-06-24T10:14:52;24.20;99.90
15906;DHT22;8051;50.820;4.884;2023-06-24T10:17:20;24.20;99.90
15906;DHT22;8051;50.820;4.884;2023-06-24T10:19:52;24.20;99.90
15906;DHT22;8051;50.820;4.884;2023-06-24T10:22:21;24.10;99.90
15906;DHT22;8051;50.820;4.884;2023-06-24T10:24:51;24.20;99.90
15906;DHT22;8051;50.820;4.884;2023-06-24T10:27:20;24.40;99.90
15906;DHT22;8051;50.820;4.884;2023-06-24T10:29:49;24.50;99.90
15906;DHT22;8051;50.820;4.884;2023-06-24T10:32:18;24.50;99.90
15906;DHT22;8051;50.820;4.884;2023-06-24T10:34:49;24.50;99.90
15906;DHT22;8051;50.820;4.884;2023-06-24T10:37:22;24.50;99.90
15906;DHT22;8051;50.820;4.884;2023-06-24T10:39:51;24.60;99.90
15906;DHT22;8051;50.820;4.884;2023-06-24T10:42:37;24.70;99.90
15906;DHT22;8051;50.820;4.884;2023-06-24T10:45:19;24.80;99.90
15906;DHT22;8051;50.820;4.884;2023-06-24T10:47:48;24.90;99.90
15906;DHT22;8051;50.820;4.884;2023-06-24T10:50:18;24.90;99.90
15906;DHT22;8051;50.820;4.884;2023-06-24T10:52:47;25.00;99.90
15906;DHT22;8051;50.820;4.884;2023-06-24T10:55:15;25.00;99.90
15906;DHT22;8051;50.820;4.884;2023-06-24T10:57:43;25.10;99.90
15906;DHT22;8051;50.820;4.884;2023-06-24T11:00:12;25.10;99.90
15906;DHT22;8051;50.820;4.884;2023-06-24T11:02:40;25.10;99.90
15906;DHT22;8051;50.820;4.884;2023-06-24T11:05:08;25.10;99.90
15906;DHT22;8051;50.820;4.884;2023-06-24T11:07:37;25.20;99.90
15906;DHT22;8051;50.820;4.884;2023-06-24T11:10:06;25.20;99.90
15906;DHT22;8051;50.820;4.884;2023-06-24T11:12:35;25.10;99.90
15906;DHT22;8051;50.820;4.884;2023-06-24T11:15:05;25.10;99.90
15906;DHT22;8051;50.820;4.884;2023-06-24T11:17:33;25.20;99.90
15906;DHT22;8051;50.820;4.884;2023-06-24T11:20:01;25.40;99.90
15906;DHT22;8051;50.820;4.884;2023-06-24T11:22:28;25.60;99.90
15906;DHT22;8051;50.820;4.884;2023-06-24T11:24:57;25.70;99.90
15906;DHT22;8051;50.820;4.884;2023-06-24T11:27:25;25.80;99.90
15906;DHT22;8051;50.820;4.884;2023-06-24T11:29:54;25.80;99.90
15906;DHT22;8051;50.820;4.884;2023-06-24T11:32:24;25.90;99.90
15906;DHT22;8051;50.820;4.884;2023-06-24T11:34:51;25.90;99.90
15906;DHT22;8051;50.820;4.884;2023-06-24T11:37:18;25.90;99.90
15906;DHT22;8051;50.820;4.884;2023-06-24T11:40:02;25.80;99.90
15906;DHT22;8051;50.820;4.884;2023-06-24T11:42:30;25.80;99.90
15906;DHT22;8051;50.820;4.884;2023-06-24T11:45:02;26.00;99.90
15906;DHT22;8051;50.820;4.884;2023-06-24T11:47:32;26.00;99.90
15906;DHT22;8051;50.820;4.884;2023-06-24T11:50:00;26.00;99.90
15906;DHT22;8051;50.820;4.884;2023-06-24T11:52:42;26.00;99.90
15906;DHT22;8051;50.820;4.884;2023-06-24T11:55:16;26.00;99.90
15906;DHT22;8051;50.820;4.884;2023-06-24T11:57:49;26.00;99.90
15906;DHT22;8051;50.820;4.884;2023-06-24T12:00:17;26.00;99.90
15906;DHT22;8051;50.820;4.884;2023-06-24T12:02:46;26.20;99.90
15906;DHT22;8051;50.820;4.884;2023-06-24T12:05:13;26.30;99.90
15906;DHT22;8051;50.820;4.884;2023-06-24T12:07:40;26.30;99.90
15906;DHT22;8051;50.820;4.884;2023-06-24T12:10:08;26.40;99.90
15906;DHT22;8051;50.820;4.884;2023-06-24T12:12:36;26.50;99.90
15906;DHT22;8051;50.820;4.884;2023-06-24T12:15:04;26.60;99.90
15906;DHT22;8051;50.820;4.884;2023-06-24T12:17:31;26.50;99.90
15906;DHT22;8051;50.820;4.884;2023-06-24T12:19:58;26.50;99.90
15906;DHT22;8051;50.820;4.884;2023-06-24T12:22:25;26.60;99.90
15906;DHT22;8051;50.820;4.884;2023-06-24T12:24:53;26.80;99.90
15906;DHT22;8051;50.820;4.884;2023-06-24T12:27:20;26.60;99.90
15906;DHT22;8051;50.820;4.884;2023-06-24T12:29:48;26.60;99.90
15906;DHT22;8051;50.820;4.884;2023-06-24T12:32:15;26.70;99.90
15906;DHT22;8051;50.820;4.884;2023-06-24T12:34:42;26.80;99.90
15906;DHT22;8051;50.820;4.884;2023-06-24T12:37:09;26.90;99.90
15906;DHT22;8051;50.820;4.884;2023-06-24T12:39:36;27.00;99.90
15906;DHT22;8051;50.820;4.884;2023-06-24T12:42:04;27.00;99.90
15906;DHT22;8051;50.820;4.884;2023-06-24T12:44:32;27.10;99.90
15906;DHT22;8051;50.820;4.884;2023-06-24T12:47:01;27.30;99.90
15906;DHT22;8051;50.820;4.884;2023-06-24T12:49:28;27.40;99.90
15906;DHT22;8051;50.820;4.884;2023-06-24T12:51:56;27.50;99.90
15906;DHT22;8051;50.820;4.884;2023-06-24T12:54:23;27.40;99.90
15906;DHT22;8051;50.820;4.884;2023-06-24T12:56:51;27.40;99.90
15906;DHT22;8051;50.820;4.884;2023-06-24T12:59:19;27.50;99.90
15906;DHT22;8051;50.820;4.884;2023-06-24T13:01:46;27.50;99.90
15906;DHT22;8051;50.820;4.884;2023-06-24T13:04:15;27.60;99.90
15906;DHT22;8051;50.820;4.884;2023-06-24T13:06:44;27.60;99.90
15906;DHT22;8051;50.820;4.884;2023-06-24T13:09:11;27.60;99.90
15906;DHT22;8051;50.820;4.884;2023-06-24T13:11:39;27.50;99.90
15906;DHT22;8051;50.820;4.884;2023-06-24T13:14:06;27.50;99.90
15906;DHT22;8051;50.820;4.884;2023-06-24T13:16:35;27.50;99.90
15906;DHT22;8051;50.820;4.884;2023-06-24T13:19:03;27.50;99.90
15906;DHT22;8051;50.820;4.884;2023-06-24T13:21:32;27.60;99.90
15906;DHT22;8051;50.820;4.884;2023-06-24T13:23:59;27.70;99.90
15906;DHT22;8051;50.820;4.884;2023-06-24T13:26:27;27.80;99.90
15906;DHT22;8051;50.820;4.884;2023-06-24T13:28:54;27.90;99.90
15906;DHT22;8051;50.820;4.884;2023-06-24T13:31:22;27.90;99.90
15906;DHT22;8051;50.820;4.884;2023-06-24T13:33:50;27.80;99.90
15906;DHT22;8051;50.820;4.884;2023-06-24T13:36:30;28.00;99.90
15906;DHT22;8051;50.820;4.884;2023-06-24T13:38:59;28.20;99.90
15906;DHT22;8051;50.820;4.884;2023-06-24T13:41:27;28.20;99.90
15906;DHT22;8051;50.820;4.884;2023-06-24T13:43:56;28.30;99.90
15906;DHT22;8051;50.820;4.884;2023-06-24T13:46:24;28.30;99.90
15906;DHT22;8051;50.820;4.884;2023-06-24T13:48:51;28.40;99.90
15906;DHT22;8051;50.820;4.884;2023-06-24T13:51:19;28.30;99.90
15906;DHT22;8051;50.820;4.884;2023-06-24T13:53:48;28.30;99.90
15906;DHT22;8051;50.820;4.884;2023-06-24T13:56:20;28.20;99.90
15906;DHT22;8051;50.820;4.884;2023-06-24T13:58:47;28.20;99.90
15906;DHT22;8051;50.820;4.884;2023-06-24T14:01:15;28.20;99.90
15906;DHT22;8051;50.820;4.884;2023-06-24T14:03:43;28.10;99.90
15906;DHT22;8051;50.820;4.884;2023-06-24T14:06:13;28.20;99.90
15906;DHT22;8051;50.820;4.884;2023-06-24T14:08:41;28.40;99.90
15906;DHT22;8051;50.820;4.884;2023-06-24T14:11:08;28.30;99.90
15906;DHT22;8051;50.820;4.884;2023-06-24T14:13:37;28.30;99.90
15906;DHT22;8051;50.820;4.884;2023-06-24T14:16:05;28.40;99.90
15906;DHT22;8051;50.820;4.884;2023-06-24T14:18:33;28.50;99.90
15906;DHT22;8051;50.820;4.884;2023-06-24T14:21:02;28.60;99.90
15906;DHT22;8051;50.820;4.884;2023-06-24T14:23:30;28.60;99.90
15906;DHT22;8051;50.820;4.884;2023-06-24T14:25:58;28.70;99.90
15906;DHT22;8051;50.820;4.884;2023-06-24T14:28:26;28.80;99.90
15906;DHT22;8051;50.820;4.884;2023-06-24T14:30:55;28.90;99.90
15906;DHT22;8051;50.820;4.884;2023-06-24T14:33:22;29.00;99.90
15906;DHT22;8051;50.820;4.884;2023-06-24T14:35:50;29.00;99.90
15906;DHT22;8051;50.820;4.884;2023-06-24T14:38:17;28.90;99.90
15906;DHT22;8051;50.820;4.884;2023-06-24T14:40:45;29.00;99.90
15906;DHT22;8051;50.820;4.884;2023-06-24T14:43:12;29.10;99.90
15906;DHT22;8051;50.820;4.884;2023-06-24T14:45:39;29.10;99.90
15906;DHT22;8051;50.820;4.884;2023-06-24T14:48:08;29.10;99.90
15906;DHT22;8051;50.820;4.884;2023-06-24T14:50:36;29.00;99.90
15906;DHT22;8051;50.820;4.884;2023-06-24T14:53:03;28.90;99.90
15906;DHT22;8051;50.820;4.884;2023-06-24T14:55:31;28.90;99.90
15906;DHT22;8051;50.820;4.884;2023-06-24T14:57:59;28.80;99.90
15906;DHT22;8051;50.820;4.884;2023-06-24T15:00:26;28.90;99.90
15906;DHT22;8051;50.820;4.884;2023-06-24T15:02:53;28.60;99.90
15906;DHT22;8051;50.820;4.884;2023-06-24T15:05:22;28.60;99.90
15906;DHT22;8051;50.820;4.884;2023-06-24T15:07:50;28.80;99.90
15906;DHT22;8051;50.820;4.884;2023-06-24T15:10:17;29.00;99.90
15906;DHT22;8051;50.820;4.884;2023-06-24T15:12:45;29.00;99.90
15906;DHT22;8051;50.820;4.884;2023-06-24T15:15:12;29.00;99.90
15906;DHT22;8051;50.820;4.884;2023-06-24T15:17:41;29.00;99.90
15906;DHT22;8051;50.820;4.884;2023-06-24T15:20:12;29.00;99.90
15906;DHT22;8051;50.820;4.884;2023-06-24T15:22:41;29.00;99.90
15906;DHT22;8051;50.820;4.884;2023-06-24T15:25:08;28.90;99.90
15906;DHT22;8051;50.820;4.884;2023-06-24T15:27:36;29.10;99.90
15906;DHT22;8051;50.820;4.884;2023-06-24T15:30:04;29.30;99.90
15906;DHT22;8051;50.820;4.884;2023-06-24T15:32:32;29.60;99.90
15906;DHT22;8051;50.820;4.884;2023-06-24T15:35:02;30.20;99.90
15906;DHT22;8051;50.820;4.884;2023-06-24T15:37:29;31.40;99.90
15906;DHT22;8051;50.820;4.884;2023-06-24T15:39:58;34.30;99.90
15906;DHT22;8051;50.820;4.884;2023-06-24T15:42:26;37.80;99.90
15906;DHT22;8051;50.820;4.884;2023-06-24T15:44:53;40.10;98.90
15906;DHT22;8051;50.820;4.884;2023-06-24T15:47:21;41.90;95.60
15906;DHT22;8051;50.820;4.884;2023-06-24T15:49:48;43.10;90.90
15906;DHT22;8051;50.820;4.884;2023-06-24T15:52:17;43.60;87.70
15906;DHT22;8051;50.820;4.884;2023-06-24T15:54:45;44.00;86.10